Time;durP1;ratioP1;P1;durP2;ratioP2;P2;SDS_P1;SDS_P2;PMS_P1;PMS_P2;Temp;Humidity;BMP_temperature;BMP_pressure;BME280_temperature;BME280_humidity;BME280_pressure;Samples;Min_cycle;Max_cycle;Signal;HPM_P1;HPM_P2
2022/05/02 00:00:11;;;;;;;19.23;13.07;;;12.30;99.90;;;;;;5034203;28;20183;-75
2022/05/02 00:02:37;;;;;;;20.38;13.05;;;12.30;99.90;;;;;;5033013;28;20163;-75
2022/05/02 00:05:04;;;;;;;18.15;13.70;;;12.40;99.90;;;;;;5049554;28;20722;-75
2022/05/02 00:07:30;;;;;;;21.40;13.10;;;12.40;99.90;;;;;;5034352;28;20202;-76
2022/05/02 00:09:56;;;;;;;27.27;12.82;;;12.30;99.90;;;;;;5034230;28;20184;-75
2022/05/02 00:12:21;;;;;;;16.88;12.57;;;12.00;99.90;;;;;;5034072;28;20164;-75
2022/05/02 00:14:47;;;;;;;17.90;12.77;;;12.10;99.90;;;;;;5033936;28;20195;-75
2022/05/02 00:17:13;;;;;;;15.57;12.57;;;12.00;99.90;;;;;;5034318;28;20178;-75
2022/05/02 00:19:39;;;;;;;21.58;14.02;;;12.00;99.90;;;;;;5034084;28;20171;-75
2022/05/02 00:22:05;;;;;;;21.90;15.25;;;12.00;99.90;;;;;;5034009;28;20160;-75
2022/05/02 00:24:31;;;;;;;21.00;13.00;;;12.00;99.90;;;;;;5033478;28;20522;-75
2022/05/02 00:26:57;;;;;;;25.80;13.55;;;12.10;99.90;;;;;;5033439;28;20164;-75
2022/05/02 00:29:22;;;;;;;37.90;14.73;;;12.10;99.90;;;;;;5033810;28;20178;-76
2022/05/02 00:31:48;;;;;;;25.40;13.55;;;12.10;99.90;;;;;;5033715;28;20168;-76
2022/05/02 00:34:14;;;;;;;24.95;14.13;;;12.10;99.90;;;;;;5033772;28;20172;-75
2022/05/02 00:36:40;;;;;;;24.88;15.27;;;12.00;99.90;;;;;;5033370;28;20211;-75
2022/05/02 00:39:06;;;;;;;25.55;14.32;;;11.80;99.90;;;;;;5034185;28;20171;-75
2022/05/02 00:41:31;;;;;;;23.15;13.95;;;11.70;99.90;;;;;;5034172;28;20769;-76
2022/05/02 00:43:57;;;;;;;26.20;14.27;;;11.70;99.90;;;;;;5033662;28;20160;-75
2022/05/02 00:46:24;;;;;;;24.48;14.93;;;11.80;99.90;;;;;;5033414;28;20226;-76
2022/05/02 00:48:50;;;;;;;17.20;13.65;;;11.80;99.90;;;;;;5033355;28;20257;-75
2022/05/02 00:51:17;;;;;;;23.27;14.73;;;11.70;99.90;;;;;;5049061;28;20538;-75
2022/05/02 00:53:44;;;;;;;19.65;14.88;;;11.70;99.90;;;;;;5033566;28;20278;-75
2022/05/02 00:56:11;;;;;;;22.20;15.40;;;11.70;99.90;;;;;;5033552;28;20195;-75
2022/05/02 00:58:37;;;;;;;19.95;15.07;;;11.80;99.90;;;;;;5033598;28;20172;-75
2022/05/02 01:01:04;;;;;;;25.15;16.10;;;11.80;99.90;;;;;;5033872;28;20179;-76
2022/05/02 01:03:30;;;;;;;28.95;14.93;;;11.50;99.90;;;;;;5033115;28;20225;-75
2022/05/02 01:08:41;;;;;;;20.75;16.50;;;11.60;99.90;;;;;;5032757;28;20210;-75
2022/05/02 01:11:08;;;;;;;27.83;15.40;;;11.70;99.90;;;;;;5032555;28;20168;-75
2022/05/02 01:13:40;;;;;;;24.88;17.17;;;11.70;99.90;;;;;;5048276;28;20633;-75
2022/05/02 01:16:16;;;;;;;22.17;16.90;;;11.70;99.90;;;;;;5031442;28;20199;-75
2022/05/02 01:18:44;;;;;;;27.90;16.83;;;11.70;99.90;;;;;;5032860;28;20171;-75
2022/05/02 01:21:11;;;;;;;24.65;16.52;;;11.60;99.90;;;;;;5032488;28;20255;-75
2022/05/02 01:23:37;;;;;;;20.27;15.68;;;11.50;99.90;;;;;;5033090;28;20214;-75
2022/05/02 01:26:03;;;;;;;25.40;17.25;;;11.30;99.90;;;;;;5032565;28;20199;-76
2022/05/02 01:28:28;;;;;;;21.35;15.38;;;11.10;99.90;;;;;;5032643;28;20222;-75
2022/05/02 01:30:55;;;;;;;24.08;15.80;;;11.00;99.90;;;;;;5031401;28;20168;-75
2022/05/02 01:33:21;;;;;;;22.75;16.90;;;10.80;99.90;;;;;;5031307;28;20200;-75
2022/05/02 01:35:46;;;;;;;22.05;16.02;;;10.80;99.90;;;;;;5032432;28;20675;-75
2022/05/02 01:38:12;;;;;;;25.50;17.55;;;11.00;99.90;;;;;;5032867;28;20624;-75
2022/05/02 01:40:38;;;;;;;25.98;17.33;;;11.20;99.90;;;;;;5032518;28;20183;-75
2022/05/02 01:43:04;;;;;;;33.28;18.55;;;11.30;99.90;;;;;;5032677;28;20202;-75
2022/05/02 01:45:30;;;;;;;30.42;17.55;;;11.40;99.90;;;;;;5032430;28;20603;-75
2022/05/02 01:47:56;;;;;;;26.88;17.95;;;11.40;99.90;;;;;;5031054;28;20835;-75
2022/05/02 01:50:21;;;;;;;23.80;17.77;;;11.50;99.90;;;;;;5031151;28;20521;-75
2022/05/02 01:52:47;;;;;;;26.17;17.25;;;11.40;99.90;;;;;;5032326;28;20652;-76
2022/05/02 01:55:12;;;;;;;26.38;18.33;;;11.10;99.90;;;;;;5032226;28;20184;-75
2022/05/02 01:57:38;;;;;;;27.65;17.80;;;10.90;99.90;;;;;;5032475;28;20164;-75
2022/05/02 02:00:05;;;;;;;28.45;18.45;;;10.90;99.90;;;;;;5032510;28;20647;-76
2022/05/02 02:02:30;;;;;;;25.40;17.98;;;11.10;99.90;;;;;;5032264;28;20186;-75
2022/05/02 02:07:40;;;;;;;31.88;18.33;;;11.10;99.90;;;;;;5032272;28;20242;-75
2022/05/02 02:10:07;;;;;;;30.88;18.08;;;11.00;99.90;;;;;;5031761;28;20199;-76
2022/05/02 02:12:33;;;;;;;32.50;18.52;;;11.00;99.90;;;;;;5032308;28;20234;-75
2022/05/02 02:14:58;;;;;;;23.73;17.15;;;11.00;99.90;;;;;;5031943;28;20187;-75
2022/05/02 02:17:24;;;;;;;25.67;17.92;;;11.00;99.90;;;;;;5032061;28;20248;-75
2022/05/02 02:19:50;;;;;;;25.70;16.73;;;10.90;99.90;;;;;;5032331;28;20172;-75
2022/05/02 02:22:18;;;;;;;28.83;18.25;;;10.90;99.90;;;;;;5032167;28;20168;-75
2022/05/02 02:24:45;;;;;;;28.45;18.65;;;10.80;99.90;;;;;;5032228;28;20206;-75
2022/05/02 02:27:11;;;;;;;27.90;17.48;;;10.80;99.90;;;;;;5032424;28;20170;-75
2022/05/02 02:29:37;;;;;;;27.90;18.80;;;10.70;99.90;;;;;;5031864;28;20287;-75
2022/05/02 02:32:03;;;;;;;28.42;17.55;;;10.70;99.90;;;;;;5032647;28;20243;-75
2022/05/02 02:34:29;;;;;;;30.23;18.42;;;10.70;99.90;;;;;;5035926;28;20265;-75
2022/05/02 02:36:54;;;;;;;31.75;18.77;;;10.80;99.90;;;;;;5035699;28;20171;-75
2022/05/02 02:39:20;;;;;;;32.28;19.40;;;10.80;99.90;;;;;;5036150;28;20183;-75
2022/05/02 02:41:45;;;;;;;28.48;19.83;;;10.80;99.90;;;;;;5036043;28;20203;-75
2022/05/02 02:44:11;;;;;;;27.45;18.00;;;10.70;99.90;;;;;;5035949;28;20241;-75
2022/05/02 02:46:37;;;;;;;28.40;18.60;;;10.70;99.90;;;;;;5036007;28;20679;-75
2022/05/02 02:49:02;;;;;;;32.20;18.30;;;10.80;99.90;;;;;;5035716;28;20199;-76
2022/05/02 02:51:28;;;;;;;32.40;18.75;;;10.70;99.90;;;;;;5035848;28;20175;-75
2022/05/02 02:53:53;;;;;;;28.95;19.33;;;10.70;99.90;;;;;;5035596;28;20251;-75
2022/05/02 02:56:19;;;;;;;31.05;18.38;;;10.80;99.90;;;;;;5035216;28;20192;-75
2022/05/02 02:58:45;;;;;;;29.38;18.35;;;10.80;99.90;;;;;;5035888;28;20191;-75
2022/05/02 03:01:10;;;;;;;28.15;19.60;;;10.80;99.90;;;;;;5035642;28;20183;-75
2022/05/02 03:03:36;;;;;;;25.63;18.27;;;10.70;99.90;;;;;;5035841;28;20168;-75
2022/05/02 03:06:02;;;;;;;35.85;18.67;;;10.60;99.90;;;;;;5035377;28;20180;-76
2022/05/02 03:08:28;;;;;;;32.10;19.45;;;10.70;99.90;;;;;;5035433;28;20231;-75
2022/05/02 03:10:55;;;;;;;37.00;18.13;;;10.70;99.90;;;;;;5035335;28;20164;-77
2022/05/02 03:13:21;;;;;;;32.65;19.90;;;10.50;99.90;;;;;;5050876;28;20531;-75
2022/05/02 03:15:47;;;;;;;30.60;19.58;;;10.40;99.90;;;;;;5035134;28;20184;-75
2022/05/02 03:18:13;;;;;;;35.28;20.67;;;10.50;99.90;;;;;;5035274;28;20244;-75
2022/05/02 03:20:38;;;;;;;24.98;18.50;;;10.30;99.90;;;;;;5033744;28;20672;-75
2022/05/02 03:23:05;;;;;;;31.77;19.23;;;10.10;99.90;;;;;;5035331;28;20318;-75
2022/05/02 03:25:30;;;;;;;28.35;19.50;;;10.10;99.90;;;;;;5035447;28;20652;-75
2022/05/02 03:27:56;;;;;;;32.55;18.80;;;10.20;99.90;;;;;;5035149;28;20218;-75
2022/05/02 03:30:22;;;;;;;35.25;20.77;;;10.10;99.90;;;;;;5034785;28;20218;-76
2022/05/02 03:32:48;;;;;;;26.27;18.98;;;10.10;99.90;;;;;;5034789;28;20171;-75
2022/05/02 03:35:13;;;;;;;33.63;20.10;;;10.00;99.90;;;;;;5034540;28;20242;-75
2022/05/02 03:37:39;;;;;;;37.22;21.23;;;10.00;99.90;;;;;;5034756;28;20179;-75
2022/05/02 03:40:07;;;;;;;30.40;19.88;;;10.20;99.90;;;;;;5034771;28;20172;-75
2022/05/02 03:42:32;;;;;;;31.48;20.65;;;10.20;99.90;;;;;;5034769;28;20196;-76
2022/05/02 03:44:58;;;;;;;37.17;21.88;;;10.00;99.90;;;;;;5034160;28;20234;-75
2022/05/02 03:47:24;;;;;;;43.72;20.48;;;10.00;99.90;;;;;;5034644;28;20195;-75
2022/05/02 03:49:49;;;;;;;35.50;20.75;;;9.90;99.90;;;;;;5035013;28;20167;-75
2022/05/02 03:52:15;;;;;;;39.15;22.13;;;9.90;99.90;;;;;;5034729;28;20703;-75
2022/05/02 03:54:41;;;;;;;34.90;20.80;;;9.90;99.90;;;;;;5034826;28;20184;-75
2022/05/02 03:57:07;;;;;;;40.10;21.55;;;9.90;99.90;;;;;;5034884;28;20520;-75
2022/05/02 03:59:32;;;;;;;37.85;21.20;;;10.00;99.90;;;;;;5049787;28;20172;-75
2022/05/02 04:01:58;;;;;;;32.75;21.27;;;10.00;99.90;;;;;;5034616;28;20195;-75
2022/05/02 04:04:23;;;;;;;39.47;21.38;;;10.00;99.90;;;;;;5034645;28;21006;-75
2022/05/02 04:06:49;;;;;;;34.40;21.65;;;10.20;99.90;;;;;;5033103;28;20172;-76
2022/05/02 04:09:15;;;;;;;39.28;22.88;;;10.20;99.90;;;;;;5049777;28;20215;-75
2022/05/02 04:11:41;;;;;;;35.22;22.17;;;10.30;99.90;;;;;;5034286;28;20528;-75
2022/05/02 04:14:07;;;;;;;36.08;23.65;;;10.40;99.90;;;;;;5034470;28;20218;-76
2022/05/02 04:16:32;;;;;;;33.90;21.73;;;10.30;99.90;;;;;;5049899;28;20207;-77
2022/05/02 04:18:58;;;;;;;34.88;20.88;;;10.20;99.90;;;;;;5033887;28;20695;-75
2022/05/02 04:21:24;;;;;;;34.38;21.55;;;10.10;99.90;;;;;;5034514;28;20251;-75
2022/05/02 04:23:49;;;;;;;34.13;22.42;;;10.20;99.90;;;;;;5049787;28;20164;-75
2022/05/02 04:26:15;;;;;;;36.67;20.45;;;10.10;99.90;;;;;;5034013;28;20205;-76
2022/05/02 04:28:40;;;;;;;35.90;20.42;;;10.10;99.90;;;;;;5034167;28;20207;-75
2022/05/02 04:31:06;;;;;;;31.48;20.92;;;10.10;99.90;;;;;;5033580;28;20164;-74
2022/05/02 04:33:31;;;;;;;39.70;23.10;;;10.20;99.90;;;;;;5032797;28;20167;-75
2022/05/02 04:35:58;;;;;;;36.50;21.73;;;10.30;99.90;;;;;;5033871;28;20700;-75
2022/05/02 04:38:26;;;;;;;42.25;21.25;;;10.30;99.90;;;;;;5033819;28;20172;-75
2022/05/02 04:40:52;;;;;;;39.15;21.23;;;10.10;99.90;;;;;;5033511;28;20230;-75
2022/05/02 04:43:17;;;;;;;31.80;21.77;;;10.30;99.90;;;;;;5033501;28;20628;-75
2022/05/02 04:45:43;;;;;;;36.88;22.15;;;10.30;99.90;;;;;;5033835;28;20223;-75
2022/05/02 04:48:10;;;;;;;33.25;21.30;;;10.40;99.90;;;;;;5033417;28;20242;-75
2022/05/02 04:50:36;;;;;;;36.75;20.75;;;10.40;99.90;;;;;;5033589;28;20175;-75
2022/05/02 04:53:01;;;;;;;39.75;22.60;;;10.60;99.90;;;;;;5033565;28;20520;-75
2022/05/02 04:55:27;;;;;;;33.15;20.58;;;10.40;99.90;;;;;;5032703;28;20187;-75
2022/05/02 04:57:52;;;;;;;38.50;22.25;;;10.60;99.90;;;;;;5033519;28;20175;-76
2022/05/02 05:00:18;;;;;;;39.40;22.92;;;10.60;99.90;;;;;;5032991;28;20180;-75
2022/05/02 05:02:44;;;;;;;42.22;22.35;;;10.70;99.90;;;;;;5033157;28;20608;-75
2022/05/02 05:05:10;;;;;;;29.65;20.27;;;10.70;99.90;;;;;;5033480;28;20184;-75
2022/05/02 05:07:37;;;;;;;37.00;21.30;;;10.60;99.90;;;;;;5033295;28;20196;-75
2022/05/02 05:10:04;;;;;;;35.80;21.30;;;10.60;99.90;;;;;;5033325;28;20175;-75
2022/05/02 05:12:53;;;;;;;38.63;22.40;;;10.60;99.90;;;;;;5048517;28;20160;-76
2022/05/02 05:18:49;;;;;;;37.83;22.20;;;10.80;99.90;;;;;;5033109;28;20658;-77
2022/05/02 05:21:43;;;;;;;42.08;22.40;;;11.00;99.90;;;;;;5032833;28;20167;-76
2022/05/02 05:24:36;;;;;;;44.05;19.92;;;11.00;99.90;;;;;;5032638;28;20168;-76
2022/05/02 05:27:25;;;;;;;33.47;21.17;;;10.90;99.90;;;;;;5031581;28;20167;-76
2022/05/02 05:29:57;;;;;;;34.75;21.30;;;11.10;99.90;;;;;;5032068;28;20192;-76
2022/05/02 05:33:00;;;;;;;39.40;24.88;;;11.30;99.90;;;;;;5032798;28;20160;-76
2022/05/02 05:35:49;;;;;;;35.65;22.25;;;11.30;99.90;;;;;;5032141;28;20818;-76
2022/05/02 05:38:34;;;;;;;33.38;21.13;;;11.50;99.90;;;;;;5032058;28;20172;-76
2022/05/02 05:41:17;;;;;;;31.25;20.42;;;11.70;99.90;;;;;;5032354;28;20172;-76
2022/05/02 05:43:53;;;;;;;39.92;20.48;;;11.90;99.90;;;;;;5032363;28;20294;-78
2022/05/02 05:46:42;;;;;;;41.00;21.90;;;11.90;99.90;;;;;;5030829;28;20218;-76
2022/05/02 05:49:36;;;;;;;28.35;20.17;;;11.90;99.90;;;;;;5014591;28;20208;-78
2022/05/02 05:52:16;;;;;;;31.65;19.88;;;12.00;99.90;;;;;;5012401;28;20180;-76
2022/05/02 05:54:44;;;;;;;35.50;20.52;;;11.90;99.90;;;;;;5012466;28;20571;-76
2022/05/02 05:57:18;;;;;;;34.90;20.80;;;12.10;99.90;;;;;;5012191;28;20211;-75
2022/05/02 06:00:02;;;;;;;31.90;21.25;;;12.30;99.90;;;;;;5012187;28;20231;-75
2022/05/02 06:02:49;;;;;;;38.75;19.83;;;12.30;99.90;;;;;;5012447;28;20251;-76
2022/05/02 06:05:16;;;;;;;43.90;21.05;;;12.20;99.90;;;;;;5012333;28;20664;-76
2022/05/02 06:07:44;;;;;;;41.60;20.65;;;12.20;99.90;;;;;;5012017;28;20282;-76
2022/05/02 06:10:13;;;;;;;35.38;20.35;;;11.90;99.90;;;;;;5013135;28;20663;-85
2022/05/02 06:12:41;;;;;;;37.05;22.15;;;12.20;99.90;;;;;;5015041;28;20263;-79
2022/05/02 06:20:42;;;;;;;46.28;21.20;;;12.60;99.90;;;;;;5013323;28;20179;-78
2022/05/02 06:23:10;;;;;;;34.03;20.02;;;12.60;99.90;;;;;;5013494;28;20160;-86
2022/05/02 06:25:40;;;;;;;40.03;22.02;;;12.60;99.90;;;;;;5013981;28;20267;-84
2022/05/02 06:28:07;;;;;;;40.90;19.92;;;12.90;99.90;;;;;;5017422;28;21299;-76
2022/05/02 06:30:35;;;;;;;32.25;20.27;;;13.00;99.90;;;;;;5030263;28;20226;-76
2022/05/02 06:33:09;;;;;;;38.13;20.83;;;13.10;99.90;;;;;;5029329;28;20168;-87
2022/05/02 06:36:11;;;;;;;38.40;20.42;;;13.10;99.90;;;;;;5014284;28;20207;-79
2022/05/02 06:38:55;;;;;;;39.80;20.52;;;13.20;99.90;;;;;;5013299;28;20180;-87
2022/05/02 06:41:36;;;;;;;38.53;20.48;;;13.20;99.90;;;;;;5012470;28;20242;-82
2022/05/02 06:44:45;;;;;;;33.80;19.15;;;13.10;99.90;;;;;;5014051;28;20521;-86
2022/05/02 06:47:29;;;;;;;75.10;25.20;;;13.40;99.90;;;;;;4972990;28;20193;-85
2022/05/02 06:49:57;;;;;;;35.42;17.98;;;13.70;99.90;;;;;;4972215;28;20178;-92
2022/05/02 06:52:32;;;;;;;30.95;17.85;;;13.70;99.90;;;;;;5005960;28;20242;-83
2022/05/02 06:55:01;;;;;;;38.75;18.80;;;13.90;99.90;;;;;;5032988;28;20222;-85
2022/05/02 06:57:41;;;;;;;27.17;16.52;;;13.90;99.90;;;;;;5032175;28;20322;-90
2022/05/02 07:00:10;;;;;;;30.20;17.25;;;13.90;99.90;;;;;;5031954;28;20241;-87
2022/05/02 07:03:14;;;;;;;31.77;19.13;;;13.70;99.90;;;;;;5033159;28;20198;-89
2022/05/02 07:06:05;;;;;;;35.38;17.15;;;13.70;99.90;;;;;;5012980;28;20282;-94
2022/05/02 07:08:37;;;;;;;35.80;18.63;;;13.40;99.90;;;;;;5010502;28;20216;-80
2022/05/02 07:11:06;;;;;;;29.45;17.00;;;13.40;99.90;;;;;;5027533;28;20209;-93
2022/05/02 07:14:12;;;;;;;25.88;17.45;;;13.50;99.90;;;;;;5015849;28;20173;-89
2022/05/02 07:16:49;;;;;;;32.15;17.08;;;13.80;99.90;;;;;;5007555;28;20208;-90
2022/05/02 07:19:48;;;;;;;25.40;16.10;;;14.60;99.90;;;;;;5015549;28;20180;-91
2022/05/02 07:22:22;;;;;;;30.67;15.57;;;15.30;99.90;;;;;;5014703;28;20274;-82
2022/05/02 07:25:09;;;;;;;34.72;16.15;;;16.10;99.90;;;;;;5033530;28;20229;-88
2022/05/02 07:28:05;;;;;;;26.83;15.55;;;16.50;99.90;;;;;;5035401;28;20232;-87
2022/05/02 07:30:31;;;;;;;35.70;14.90;;;16.30;99.90;;;;;;5036836;28;20549;-81
2022/05/02 07:33:00;;;;;;;44.65;15.98;;;15.80;99.90;;;;;;5022077;28;20169;-77
2022/05/02 07:35:27;;;;;;;77.32;18.95;;;15.70;99.90;;;;;;5014524;28;20196;-76
2022/05/02 07:37:54;;;;;;;18.90;12.85;;;15.60;99.90;;;;;;5014955;28;20223;-76
2022/05/02 07:40:21;;;;;;;23.73;14.75;;;15.50;99.90;;;;;;5017391;28;20240;-76
2022/05/02 07:42:48;;;;;;;24.98;14.45;;;15.40;99.90;;;;;;5030498;28;20172;-76
2022/05/02 07:45:17;;;;;;;18.15;13.38;;;15.30;99.90;;;;;;5034718;28;20179;-76
2022/05/02 07:47:45;;;;;;;18.92;15.00;;;15.50;99.90;;;;;;5035244;28;20195;-91
2022/05/02 07:50:12;;;;;;;20.25;14.55;;;15.30;99.90;;;;;;5031831;28;20585;-77
2022/05/02 07:52:41;;;;;;;23.40;13.40;;;15.30;99.90;;;;;;5018082;28;20661;-86
2022/05/02 07:55:11;;;;;;;18.50;13.52;;;15.20;99.90;;;;;;5013806;28;20271;-81
2022/05/02 07:57:39;;;;;;;31.40;12.85;;;15.20;99.90;;;;;;5030517;28;20169;-85
2022/05/02 08:00:07;;;;;;;36.47;15.35;;;15.00;99.90;;;;;;5032393;28;20188;-81
2022/05/02 08:02:33;;;;;;;22.05;14.07;;;15.00;99.90;;;;;;5028554;28;20177;-81
2022/05/02 08:04:59;;;;;;;18.40;14.07;;;15.10;99.90;;;;;;5028770;28;20231;-81
2022/05/02 08:07:37;;;;;;;17.65;13.07;;;15.20;99.90;;;;;;5029866;28;20638;-83
2022/05/02 08:10:21;;;;;;;24.77;13.82;;;15.20;99.90;;;;;;5033624;28;20266;-83
2022/05/02 08:13:02;;;;;;;18.75;12.80;;;15.20;99.90;;;;;;5033699;28;20176;-81
2022/05/02 08:15:40;;;;;;;19.95;12.13;;;15.20;99.90;;;;;;5032654;28;20195;-81
2022/05/02 08:18:43;;;;;;;31.23;13.55;;;15.10;99.90;;;;;;5048034;28;20172;-80
2022/05/02 08:21:12;;;;;;;36.03;12.80;;;15.10;99.90;;;;;;5029825;28;20210;-83
2022/05/02 08:29:48;;;;;;;15.75;12.48;;;15.40;99.90;;;;;;5013125;28;20223;-81
2022/05/02 08:32:37;;;;;;;18.92;11.88;;;15.50;99.90;;;;;;5029215;28;20169;-80
2022/05/02 08:35:07;;;;;;;17.40;11.02;;;15.70;99.90;;;;;;5013104;28;20258;-80
2022/05/02 08:38:00;;;;;;;21.85;11.73;;;15.80;99.90;;;;;;5015977;28;20208;-79
2022/05/02 08:40:25;;;;;;;14.95;10.63;;;16.00;99.90;;;;;;5033144;28;20163;-80
2022/05/02 08:43:33;;;;;;;21.35;10.63;;;16.10;99.90;;;;;;5033648;28;20186;-79
2022/05/02 08:46:27;;;;;;;19.60;10.70;;;16.40;99.90;;;;;;5028252;28;20215;-80
2022/05/02 08:52:47;;;;;;;15.18;10.57;;;16.40;99.90;;;;;;5016347;28;20668;-86
2022/05/02 08:55:40;;;;;;;14.93;10.80;;;16.50;99.90;;;;;;5014821;28;20238;-82
2022/05/02 08:58:09;;;;;;;10.50;9.40;;;16.70;99.90;;;;;;5014619;28;20259;-84
2022/05/02 09:01:08;;;;;;;19.60;10.25;;;16.60;99.90;;;;;;5014913;28;20235;-84
2022/05/02 09:03:52;;;;;;;10.15;9.02;;;16.80;99.90;;;;;;5014867;28;20169;-81
2022/05/02 09:06:39;;;;;;;19.80;10.52;;;16.90;99.90;;;;;;5015107;28;20184;-88
2022/05/02 09:09:29;;;;;;;10.77;9.40;;;16.90;99.90;;;;;;5015419;28;20223;-88
2022/05/02 09:12:25;;;;;;;15.50;9.55;;;17.00;99.90;;;;;;5013749;28;20173;-80
2022/05/02 09:15:11;;;;;;;11.63;9.27;;;16.90;99.90;;;;;;5013269;28;20288;-82
2022/05/02 09:17:46;;;;;;;10.63;9.32;;;16.80;99.90;;;;;;5021643;28;20164;-79
2022/05/02 09:20:34;;;;;;;15.30;8.88;;;16.90;99.90;;;;;;5025816;28;20179;-79
2022/05/02 09:23:21;;;;;;;12.88;9.10;;;17.00;99.90;;;;;;5026999;28;20251;-81
2022/05/02 09:26:05;;;;;;;10.15;9.02;;;17.00;99.90;;;;;;5027138;28;20188;-79
2022/05/02 09:29:08;;;;;;;17.25;10.45;;;17.10;99.90;;;;;;5029710;28;20196;-84
2022/05/02 09:31:47;;;;;;;18.38;9.25;;;17.10;99.90;;;;;;5048967;28;20171;-80
2022/05/02 09:34:19;;;;;;;12.13;8.60;;;17.40;99.90;;;;;;5047444;28;20170;-80
2022/05/02 09:36:54;;;;;;;16.40;8.80;;;17.50;99.90;;;;;;5048142;28;20203;-84
2022/05/02 09:39:24;;;;;;;36.38;9.32;;;17.40;99.90;;;;;;5051487;28;20168;-86
2022/05/02 09:41:50;;;;;;;11.40;6.47;;;17.50;99.90;;;;;;5036685;28;20183;-89
2022/05/02 09:50:37;;;;;;;13.35;7.82;;;17.30;99.90;;;;;;5035971;28;20179;-85
2022/05/02 09:53:17;;;;;;;10.07;6.60;;;17.30;99.90;;;;;;5047763;28;20160;-89
2022/05/02 09:59:23;;;;;;;19.60;6.68;;;17.30;99.90;;;;;;5036920;28;20211;-87
2022/05/02 10:01:57;;;;;;;11.52;7.40;;;17.30;99.90;;;;;;5048826;28;20191;-82
2022/05/02 10:04:32;;;;;;;13.15;7.28;;;17.50;99.90;;;;;;5029342;28;20179;-81
2022/05/02 10:07:09;;;;;;;15.07;7.10;;;17.30;99.90;;;;;;5026576;28;20168;-91
2022/05/02 10:09:52;;;;;;;14.02;6.95;;;17.30;99.90;;;;;;5029500;28;20212;-86
2022/05/02 10:12:49;;;;;;;7.72;6.63;;;17.50;99.90;;;;;;5011602;28;20210;-84
2022/05/02 10:15:45;;;;;;;6.63;6.00;;;17.60;99.90;;;;;;5011260;28;20208;-85
2022/05/02 10:18:14;;;;;;;7.63;6.93;;;17.60;99.90;;;;;;5011703;28;20263;-78
2022/05/02 10:21:01;;;;;;;15.98;7.85;;;17.80;99.90;;;;;;5014702;28;20171;-87
2022/05/02 10:23:56;;;;;;;24.42;7.97;;;17.70;99.90;;;;;;5014955;28;20172;-90
2022/05/02 10:26:34;;;;;;;7.05;6.45;;;17.60;99.90;;;;;;5015939;28;20215;-82
2022/05/02 10:29:18;;;;;;;8.13;7.15;;;17.40;99.90;;;;;;5031838;28;20218;-92
2022/05/02 10:31:50;;;;;;;6.10;5.60;;;17.30;99.90;;;;;;5014053;28;20175;-91
2022/05/02 10:34:24;;;;;;;6.97;5.30;;;17.60;99.90;;;;;;5030316;28;20168;-90
2022/05/02 10:36:53;;;;;;;15.60;6.45;;;17.70;99.90;;;;;;5018757;28;20196;-83
2022/05/02 10:39:27;;;;;;;11.55;7.30;;;17.80;99.90;;;;;;5034254;28;20192;-89
2022/05/02 10:41:58;;;;;;;9.85;7.20;;;17.80;99.90;;;;;;5015718;28;20247;-80
2022/05/02 10:44:28;;;;;;;7.80;7.07;;;17.80;99.90;;;;;;5016032;28;20168;-87
2022/05/02 10:47:03;;;;;;;13.02;6.55;;;17.90;99.90;;;;;;5021360;28;20190;-88
2022/05/02 10:49:31;;;;;;;9.80;5.47;;;18.00;99.90;;;;;;5021039;28;20227;-87
2022/05/02 10:52:19;;;;;;;10.57;6.20;;;17.90;99.90;;;;;;5020755;28;20171;-79
2022/05/02 10:54:55;;;;;;;10.93;6.07;;;18.00;99.90;;;;;;5020855;28;20239;-83
2022/05/02 10:57:40;;;;;;;8.27;7.47;;;18.20;99.90;;;;;;5020126;28;20156;-82
2022/05/02 11:00:12;;;;;;;10.32;6.15;;;18.20;99.90;;;;;;5035568;28;20184;-83
2022/05/02 11:02:52;;;;;;;12.25;6.82;;;18.20;99.90;;;;;;5017544;28;20211;-90
2022/05/02 11:05:42;;;;;;;9.45;7.00;;;18.10;99.90;;;;;;5017259;28;20194;-88
2022/05/02 11:08:11;;;;;;;10.32;7.60;;;17.80;99.90;;;;;;4996607;28;20244;-88
2022/05/02 11:10:52;;;;;;;8.07;6.55;;;17.90;99.90;;;;;;5018024;28;20211;-91
2022/05/02 11:13:23;;;;;;;7.97;7.18;;;17.60;99.90;;;;;;5016537;28;20171;-88
2022/05/02 11:16:12;;;;;;;10.27;7.22;;;17.60;99.90;;;;;;5017901;28;20188;-85
2022/05/02 11:21:51;;;;;;;8.80;6.97;;;17.60;99.90;;;;;;5015955;28;20180;-87
2022/05/02 11:24:52;;;;;;;13.85;6.55;;;17.90;99.90;;;;;;5030736;28;20198;-86
2022/05/02 11:27:30;;;;;;;8.60;6.45;;;18.20;99.90;;;;;;5030818;28;20260;-86
2022/05/02 11:30:06;;;;;;;9.85;7.63;;;18.10;99.90;;;;;;5015316;28;20643;-86
2022/05/02 11:32:59;;;;;;;10.43;6.85;;;17.70;99.90;;;;;;5030592;28;20210;-85
2022/05/02 11:35:30;;;;;;;11.82;7.07;;;17.80;99.90;;;;;;5015453;28;20648;-83
2022/05/02 11:38:22;;;;;;;7.95;7.15;;;18.00;99.90;;;;;;5015795;28;20176;-85
2022/05/02 11:40:51;;;;;;;11.65;6.35;;;18.10;99.90;;;;;;5015209;28;20239;-84
2022/05/02 11:43:22;;;;;;;7.25;6.03;;;18.20;99.10;;;;;;5030914;28;20215;-86
2022/05/02 11:45:59;;;;;;;16.73;6.82;;;18.00;99.80;;;;;;5013940;28;20228;-83
2022/05/02 11:48:41;;;;;;;7.15;6.43;;;18.10;98.90;;;;;;5016714;28;20291;-90
2022/05/02 11:51:07;;;;;;;17.42;6.13;;;18.00;99.20;;;;;;5016041;28;20164;-85
2022/05/02 11:53:37;;;;;;;9.48;6.00;;;18.00;99.00;;;;;;5016334;28;20272;-87
2022/05/02 11:56:05;;;;;;;10.60;6.65;;;18.00;98.70;;;;;;5015701;28;20644;-82
2022/05/02 11:58:56;;;;;;;12.07;5.85;;;18.00;98.80;;;;;;5016072;28;20173;-90
2022/05/02 12:01:27;;;;;;;11.52;5.45;;;18.10;99.00;;;;;;5014873;28;20270;-83
2022/05/02 12:03:59;;;;;;;18.92;6.22;;;18.20;99.40;;;;;;5015872;28;20203;-82
2022/05/02 12:06:39;;;;;;;11.57;6.63;;;18.30;98.40;;;;;;5014521;28;20188;-85
2022/05/02 12:09:07;;;;;;;9.95;6.00;;;18.30;98.20;;;;;;5031326;28;20568;-84
2022/05/02 12:11:53;;;;;;;8.82;7.22;;;18.30;98.60;;;;;;5014575;28;20196;-83
2022/05/02 12:14:21;;;;;;;10.63;6.07;;;18.50;98.00;;;;;;5030855;28;20255;-80
2022/05/02 12:17:12;;;;;;;14.18;5.57;;;18.40;97.60;;;;;;5030174;28;20173;-81
2022/05/02 12:19:40;;;;;;;11.65;5.95;;;18.30;97.80;;;;;;5029878;28;20180;-85
2022/05/02 12:22:15;;;;;;;12.13;5.82;;;18.40;97.40;;;;;;5032183;28;20176;-84
2022/05/02 12:24:45;;;;;;;8.18;7.35;;;18.30;98.20;;;;;;5036067;28;20209;-89
2022/05/02 12:27:12;;;;;;;8.82;6.38;;;18.20;97.90;;;;;;5034184;28;20559;-81
2022/05/02 12:29:44;;;;;;;8.48;6.90;;;18.40;99.00;;;;;;5033756;28;20223;-79
2022/05/02 12:32:10;;;;;;;16.42;6.90;;;18.40;98.30;;;;;;5035257;28;20255;-82
2022/05/02 12:34:46;;;;;;;7.53;6.65;;;18.60;98.10;;;;;;5035275;28;20202;-82
2022/05/02 12:37:23;;;;;;;7.55;6.78;;;18.70;98.20;;;;;;5035189;28;20183;-83
2022/05/02 12:40:25;;;;;;;18.58;5.97;;;18.70;98.00;;;;;;5034437;28;20238;-83
2022/05/02 12:42:55;;;;;;;8.00;6.32;;;18.60;97.60;;;;;;5033005;28;20245;-85
2022/05/02 12:45:22;;;;;;;17.48;5.80;;;18.60;97.60;;;;;;5050139;28;20370;-85
2022/05/02 12:48:01;;;;;;;12.35;6.68;;;18.70;96.90;;;;;;5050508;28;20203;-82
2022/05/02 12:50:29;;;;;;;6.70;6.00;;;18.70;97.10;;;;;;5035302;28;20171;-89
2022/05/02 12:53:05;;;;;;;10.43;6.13;;;18.70;97.30;;;;;;5050312;28;20192;-82
2022/05/02 12:55:36;;;;;;;8.20;6.10;;;18.60;97.90;;;;;;5034218;28;20183;-88
2022/05/02 13:00:52;;;;;;;7.18;5.97;;;18.60;97.20;;;;;;5034585;28;20254;-85
2022/05/02 13:03:23;;;;;;;7.65;5.57;;;18.70;97.10;;;;;;5035006;28;20176;-88
2022/05/02 13:05:55;;;;;;;6.00;4.45;;;18.80;96.40;;;;;;5034353;28;20187;-86
2022/05/02 13:08:41;;;;;;;11.73;5.82;;;18.80;96.60;;;;;;5037364;28;20734;-85
2022/05/02 13:11:13;;;;;;;9.65;6.35;;;18.80;96.20;;;;;;5054170;28;20214;-83
2022/05/02 13:13:50;;;;;;;11.98;6.18;;;18.80;96.60;;;;;;5037824;28;20166;-81
2022/05/02 13:16:24;;;;;;;22.10;5.57;;;18.70;96.70;;;;;;5033023;28;20192;-80
2022/05/02 13:18:50;;;;;;;7.20;6.28;;;18.70;96.60;;;;;;5049923;28;20220;-81
2022/05/02 13:21:18;;;;;;;9.05;5.43;;;18.90;95.90;;;;;;5036522;28;20160;-84
2022/05/02 13:24:02;;;;;;;12.18;5.40;;;18.70;95.60;;;;;;5040966;28;20172;-80
2022/05/02 13:26:46;;;;;;;8.73;5.30;;;18.60;96.50;;;;;;5053272;28;20203;-79
2022/05/02 13:29:43;;;;;;;6.07;5.57;;;18.80;95.40;;;;;;5035178;28;20621;-83
2022/05/02 13:32:23;;;;;;;9.77;5.00;;;18.80;95.40;;;;;;5037534;28;20169;-79
2022/05/02 13:34:51;;;;;;;11.27;4.88;;;18.80;95.00;;;;;;5021453;28;20184;-90
2022/05/02 13:37:41;;;;;;;9.10;6.03;;;18.70;95.20;;;;;;5022312;28;20172;-80
2022/05/02 13:40:09;;;;;;;5.10;4.60;;;18.80;95.00;;;;;;5020316;28;20267;-86